Bookmark and Share
Track history (hours):
 

Drifting buoy 51940

Last reported at 2014-Apr-24 06:27 UTC. Time now 2014-Apr-24 09:36 UTC.
Position N 31°42' E 170°60'.

Water temperature 17.4 ° C

NotesDate/timePositionNaut miles runAvg speedWind from/ knotsBaromVisibWave heightAir tempDewpointWater temp
2014-Apr-24 06:27N 31°42' E 170°60'0 0.0 17.4
2014-Apr-24 05:47N 31°42' E 170°60'0 0.0 17.4
2014-Apr-24 04:50N 31°42' E 170°60'1 8.2 17.4
2014-Apr-24 04:44N 31°41' E 170°59'0 0.0 17.4
2014-Apr-24 02:50N 31°41' E 170°59'1 0.7 17.4
2014-Apr-24 01:10N 31°40' E 170°59'3 0.4 17.5
2014-Apr-23 19:16N 31°38' E 170°57'0 3.4 17.8
2014-Apr-23 19:09N 31°39' E 170°57'0 0.1 17.8
2014-Apr-23 15:33N 31°38' E 170°57'0 1.7 17.8
2014-Apr-23 15:22N 31°39' E 170°57'0 0.0 17.8
2014-Apr-23 13:50N 31°39' E 170°57'0 0.1 17.8
2014-Apr-23 10:32N 31°39' E 170°57'0 0.0 17.8
2014-Apr-23 10:09N 31°39' E 170°57'0 0.2 17.8
2014-Apr-23 08:54N 31°39' E 170°57'1 6.7 17.8
2014-Apr-23 08:47N 31°38' E 170°56'0 0.0 17.8
2014-Apr-23 08:28N 31°38' E 170°56'1 0.3 17.8
2014-Apr-23 03:01N 31°38' E 170°58'1 0.8 17.8
2014-Apr-23 01:24N 31°38' E 170°59'130.7 17.6
2014-Apr-23 01:22N 31°38' E 170°58'1 0.4 17.5
2014-Apr-22 21:38N 31°38' E 170°60'0 0.2 17.1
2014-Apr-22 21:11N 31°38' E 171°00'1 0.4 17.1
2014-Apr-22 18:01N 31°37' E 171°01'1 0.8 17.1
2014-Apr-22 17:00N 31°36' E 171°01'214.6
2014-Apr-22 16:51N 31°35' E 171°03'0 0.0 17.1
2014-Apr-22 15:42N 31°35' E 171°03'0 0.0 17.1
2014-Apr-22 15:15N 31°35' E 171°03'0 0.0 17.1
2014-Apr-22 14:03N 31°35' E 171°03'1 7.6 17.1
2014-Apr-22 13:52N 31°36' E 171°05'0 0.0
2014-Apr-22 10:52N 31°36' E 171°05'2 4.0 17.1
2014-Apr-22 10:22N 31°34' E 171°05'1 3.6 17.1
2014-Apr-22 10:10N 31°35' E 171°06'1 0.8 17.1
2014-Apr-22 09:15N 31°34' E 171°05'1 2.1 17.1
2014-Apr-22 08:41N 31°33' E 171°06'3 0.6 17.2
2014-Apr-22 03:12N 31°31' E 171°09'0 0.0 17.3
2014-Apr-22 02:51N 31°31' E 171°09'121.6 17.3
2014-Apr-22 02:48N 31°31' E 171°10'0 0.0 17.3
2014-Apr-22 01:36N 31°31' E 171°10'0 4.7 17.2
2014-Apr-22 01:30N 31°31' E 171°11'1 0.4 17.2
2014-Apr-21 23:06N 31°31' E 171°12'0 0.0 17.0
2014-Apr-21 22:51N 31°31' E 171°12'2 0.5 17.0
2014-Apr-21 18:27N 31°31' E 171°14'0 0.0 16.9
2014-Apr-21 17:13N 31°31' E 171°14'0 0.0 16.9
2014-Apr-21 16:52N 31°31' E 171°14'1 0.6 16.9
2014-Apr-21 15:54N 31°31' E 171°14'0 0.8 16.9
2014-Apr-21 15:27N 31°31' E 171°13'0 0.0 16.9
2014-Apr-21 14:11N 31°31' E 171°13'2 0.5 16.9
2014-Apr-21 10:35N 31°30' E 171°14'1 0.9 17.0
2014-Apr-21 09:35N 31°29' E 171°14'2 2.5 17.0
2014-Apr-21 08:58N 31°28' E 171°15'2 0.8 17.0
2014-Apr-21 06:01N 31°28' E 171°18'2 7.0 17.0
2014-Apr-21 05:43N 31°28' E 171°15'2 1.5 17.0
2014-Apr-21 04:20N 31°28' E 171°18'0 0.0 17.1
2014-Apr-21 03:20N 31°28' E 171°18'0 0.0 17.1
2014-Apr-21 03:01N 31°28' E 171°18'2 1.8 17.1
2014-Apr-21 01:44N 31°29' E 171°20'0 0.0 17.1
2014-Apr-21 01:41N 31°29' E 171°20'1 0.2 17.1
2014-Apr-20 23:17N 31°29' E 171°21'2 0.7 17.0
2014-Apr-20 20:36N 31°31' E 171°22'0 0.0 17.0
2014-Apr-20 19:06N 31°31' E 171°22'1 0.4 17.0
2014-Apr-20 17:24N 31°31' E 171°21'1 0.6 16.9
2014-Apr-20 16:02N 31°31' E 171°20'0 0.0 16.9
2014-Apr-20 15:41N 31°31' E 171°20'1 0.7 16.9
2014-Apr-20 14:21N 31°30' E 171°20'3 1.0 17.0
2014-Apr-20 10:47N 31°27' E 171°20'0 0.0 17.0
2014-Apr-20 09:57N 31°27' E 171°20'1 1.6 17.0
2014-Apr-20 09:06N 31°26' E 171°19'4 1.0 17.0
2014-Apr-20 04:52N 31°22' E 171°21'0 0.0 17.0
2014-Apr-20 04:49N 31°22' E 171°21'2 1.0 17.0
2014-Apr-20 03:13N 31°21' E 171°21'1 0.8 17.1
2014-Apr-20 01:56N 31°20' E 171°21'219.2 17.1
2014-Apr-20 01:50N 31°19' E 171°23'1 0.4 17.1
2014-Apr-19 23:28N 31°18' E 171°23'0 0.0 17.0
2014-Apr-19 21:49N 31°18' E 171°23'0 0.0 17.0
2014-Apr-19 20:57N 31°18' E 171°23'0 0.0 17.0
2014-Apr-19 19:33N 31°18' E 171°23'0 0.0 17.0
2014-Apr-19 17:57N 31°18' E 171°23'0 0.3 17.0
2014-Apr-19 17:36N 31°18' E 171°23'2 1.3 17.0
2014-Apr-19 16:12N 31°16' E 171°22'310.7 17.0
2014-Apr-19 15:54N 31°13' E 171°23'0 0.0 17.0
2014-Apr-19 10:59N 31°13' E 171°23'1 1.1 17.0
2014-Apr-19 10:19N 31°13' E 171°23'1 1.3 17.0
2014-Apr-19 09:30N 31°12' E 171°23'0 1.4 17.0
2014-Apr-19 09:17N 31°12' E 171°23'3 4.3 17.0
2014-Apr-19 08:33N 31°09' E 171°25'7 2.0 17.0
2014-Apr-19 05:04N 31°08' E 171°33'0 0.0 17.1
2014-Apr-19 03:24N 31°08' E 171°33'0 0.0 17.1
2014-Apr-19 02:06N 31°08' E 171°33'0 0.1 17.1
2014-Apr-18 23:38N 31°08' E 171°33'0 0.1 17.1
2014-Apr-18 22:58N 31°08' E 171°33'0 0.1 17.1
2014-Apr-18 22:14N 31°08' E 171°33'0 0.0 17.1
2014-Apr-18 22:00N 31°08' E 171°33'110.8 17.1
2014-Apr-18 21:54N 31°07' E 171°34'0 0.0 17.1
2014-Apr-18 21:18N 31°07' E 171°34'1 0.2 17.1
2014-Apr-18 17:51N 31°07' E 171°35'0 0.0 17.1
2014-Apr-18 16:47N 31°07' E 171°35'0 0.0 17.2
2014-Apr-18 16:05N 31°07' E 171°35'1 0.7 17.2
2014-Apr-18 14:47N 31°07' E 171°34'4 2.3 17.2
2014-Apr-18 13:02N 31°04' E 171°37'1 0.4 17.2
2014-Apr-18 09:51N 31°03' E 171°37'0 1.8 17.4
2014-Apr-18 09:35N 31°03' E 171°36'1 8.5 17.4
2014-Apr-18 09:28N 31°03' E 171°37'0 0.0 17.4
2014-Apr-18 08:58N 31°03' E 171°37'218.5 17.4
2014-Apr-18 08:52N 31°02' E 171°39'3 0.5 17.4
2014-Apr-18 03:54N 31°01' E 171°42'1 2.5 17.8
2014-Apr-18 03:34N 31°02' E 171°43'1 0.8 17.8
2014-Apr-18 02:20N 31°02' E 171°44'2 1.0 17.7
2014-Apr-18 00:35N 31°03' E 171°46'0 0.0 17.3
2014-Apr-17 22:33N 31°03' E 171°46'112.9 17.0
2014-Apr-17 22:30N 31°03' E 171°45'0 0.9 17.0
2014-Apr-17 22:14N 31°03' E 171°45'0 1.6 17.0
2014-Apr-17 22:05N 31°03' E 171°45'0 0.0 17.0
2014-Apr-17 21:39N 31°03' E 171°45'0 0.1 17.0
2014-Apr-17 19:00N 31°03' E 171°46'0 0.4 16.9
2014-Apr-17 18:24N 31°03' E 171°46'0 0.3 16.9
2014-Apr-17 16:39N 31°02' E 171°46'5 0.9 16.8
2014-Apr-17 10:56N 31°01' E 171°52'0 0.0 16.9
2014-Apr-17 10:12N 31°01' E 171°52'1 0.7 16.8
2014-Apr-17 09:17N 31°01' E 171°52'234.9 16.9
2014-Apr-17 09:13N 31°02' E 171°55'1 0.3 16.9
2014-Apr-17 06:00N 31°03' E 171°56'1 1.5 16.9
2014-Apr-17 05:28N 31°03' E 171°56'1 0.8 16.9
2014-Apr-17 03:49N 31°05' E 171°57'219.0 16.9
2014-Apr-17 03:44N 31°06' E 171°58'0 0.0 16.9
2014-Apr-17 02:29N 31°06' E 171°58'0 1.5 16.9
2014-Apr-17 02:25N 31°06' E 171°57'4 2.1 16.9
2014-Apr-17 00:45N 31°10' E 171°57'0 0.0 16.9
2014-Apr-16 22:57N 31°10' E 171°57'2 3.8 16.9
2014-Apr-16 22:28N 31°10' E 171°55'0 0.0 16.9
2014-Apr-16 22:19N 31°10' E 171°55'0 0.2 16.9
2014-Apr-16 19:28N 31°10' E 171°54'0 0.0 16.8
2014-Apr-16 17:52N 31°10' E 171°54'1 0.7 16.9
2014-Apr-16 17:08N 31°09' E 171°54'0 0.0 16.9
2014-Apr-16 16:27N 31°09' E 171°54'0 3.8 16.9
2014-Apr-16 16:20N 31°09' E 171°54'1 0.3 16.9
2014-Apr-16 13:25N 31°08' E 171°54'1 0.3 16.9
2014-Apr-16 09:39N 31°07' E 171°55'0 0.3 16.9
2014-Apr-16 07:58N 31°07' E 171°54'1 0.7 16.9
2014-Apr-16 06:22N 31°06' E 171°54'0 0.0 16.9
2014-Apr-16 04:47N 31°06' E 171°54'113.3 17.0
2014-Apr-16 04:41N 31°04' E 171°53'0 0.0 17.0
2014-Apr-16 03:55N 31°04' E 171°53'0 0.2 17.0
2014-Apr-16 02:36N 31°04' E 171°54'3 2.1 17.1
2014-Apr-16 00:55N 31°01' E 171°51'3 1.1 17.1
2014-Apr-15 22:38N 30°60' E 171°54'0 0.0 17.1
2014-Apr-15 20:55N 30°60' E 171°54'0 0.0 17.1
2014-Apr-15 19:12N 30°60' E 171°54'2 2.0 17.1
2014-Apr-15 18:18N 30°60' E 171°56'0 0.0 17.1
2014-Apr-15 17:30N 30°60' E 171°56'0 0.0 17.0
2014-Apr-15 16:41N 30°60' E 171°56'1 7.3
2014-Apr-15 16:31N 30°60' E 171°54'0 0.0 17.0
2014-Apr-15 15:20N 30°60' E 171°54'2 1.1 17.0
2014-Apr-15 13:37N 30°60' E 171°57'2 0.6 17.0
2014-Apr-15 10:06N 30°60' E 171°59'0 2.7 17.0
2014-Apr-15 09:59N 31°00' E 171°60'0 0.4 17.0
2014-Apr-15 09:15N 30°60' E 171°59'1 6.2 17.0
2014-Apr-15 09:10N 31°00' E 171°60'3 4.3 17.0
2014-Apr-15 08:30N 31°00' E 172°03'0 0.0 17.1
2014-Apr-15 08:19N 31°00' E 172°03'2 1.3 17.1
2014-Apr-15 07:11N 30°60' E 172°01'2 0.9 17.1
2014-Apr-15 05:27N 31°00' E 172°03'0 0.0 17.2
2014-Apr-15 02:52N 31°00' E 172°03'0 0.0 17.3
2014-Apr-15 02:47N 31°00' E 172°03'1 0.4 17.3
2014-Apr-15 01:06N 31°01' E 172°03'1 0.6 17.1
2014-Apr-14 22:52N 30°60' E 172°05'1 0.8 17.1
2014-Apr-14 21:59N 30°59' E 172°04'0 0.5 17.1
2014-Apr-14 21:00N 30°59' E 172°05'1 0.5 17.0
2014-Apr-14 18:52N 30°59' E 172°06'0 0.4 17.0
2014-Apr-14 17:50N 30°59' E 172°06'0 0.0
2014-Apr-14 17:14N 30°59' E 172°06'1 0.7 17.0
2014-Apr-14 16:17N 30°60' E 172°07'0 0.0 17.0
2014-Apr-14 13:50N 30°60' E 172°07'0 0.1 17.0
2014-Apr-14 10:17N 30°60' E 172°07'1 0.6 17.0
2014-Apr-14 08:36N 31°01' E 172°06'   17.0

Dump ship's entire track history

sailing weather and tide predictions

Buoy 51940